createdAt,value
2018-09-19T00:00:56.262Z,57.42
2018-09-19T00:03:24.483Z,58.39
2018-09-19T00:05:52.709Z,58.66
2018-09-19T00:08:20.928Z,60.23
2018-09-19T00:10:49.221Z,59.57
2018-09-19T00:13:17.432Z,61.01
2018-09-19T00:15:45.637Z,60.72
2018-09-19T00:18:13.877Z,60.98
2018-09-19T00:20:42.106Z,61.32
2018-09-19T00:23:10.351Z,60.43
2018-09-19T00:25:38.523Z,61.41
2018-09-19T00:28:06.758Z,61.34
2018-09-19T00:30:34.994Z,62.48
2018-09-19T00:33:03.209Z,62.79
2018-09-19T00:35:31.489Z,62.66
2018-09-19T00:37:59.712Z,60.86
2018-09-19T00:40:27.930Z,60.58
2018-09-19T00:42:56.144Z,61.24
2018-09-19T00:45:24.362Z,62.83
2018-09-19T00:47:52.570Z,62.71
2018-09-19T00:50:20.829Z,63.21
2018-09-19T00:52:49.038Z,63.61
2018-09-19T00:55:17.250Z,63.65
2018-09-19T00:57:45.461Z,63.83
2018-09-19T01:00:13.732Z,62.97
2018-09-19T01:02:41.948Z,63.79
2018-09-19T01:05:10.155Z,63.49
2018-09-19T01:07:38.379Z,63.58
2018-09-19T01:10:06.639Z,63.66
2018-09-19T01:12:34.853Z,64.13
2018-09-19T01:15:03.106Z,65.97
2018-09-19T01:17:31.389Z,64.66
2018-09-19T01:19:59.603Z,64.79
2018-09-19T01:22:27.854Z,63.95
2018-09-19T01:24:56.062Z,64.72
2018-09-19T01:27:24.288Z,64.73
2018-09-19T01:29:52.489Z,64.84
2018-09-19T01:32:20.726Z,63.56
2018-09-19T01:34:48.952Z,63.09
2018-09-19T01:37:17.153Z,64.05
2018-09-19T01:39:45.374Z,64.89
2018-09-19T01:42:13.582Z,64.64
2018-09-19T01:44:41.807Z,63.98
2018-09-19T01:47:10.107Z,63.56
2018-09-19T01:49:38.370Z,63.52
2018-09-19T01:52:06.751Z,64.66
2018-09-19T01:54:34.988Z,63.96
2018-09-19T01:57:03.173Z,64.31
2018-09-19T01:59:31.385Z,65.17
2018-09-19T02:01:59.623Z,67.10
2018-09-19T02:04:27.825Z,65.55
2018-09-19T02:06:56.045Z,66.73
2018-09-19T02:09:24.253Z,65.62
2018-09-19T02:11:52.466Z,66.05
2018-09-19T02:14:20.684Z,65.37
2018-09-19T02:16:48.926Z,66.96
2018-09-19T02:19:17.158Z,66.65
2018-09-19T02:21:45.382Z,66.54
2018-09-19T02:24:13.593Z,68.98
2018-09-19T02:26:41.801Z,68.23
2018-09-19T02:29:10.032Z,68.34
2018-09-19T02:31:38.280Z,67.39
2018-09-19T02:34:06.720Z,67.08
2018-09-19T02:36:34.943Z,67.11
2018-09-19T02:39:03.726Z,66.75
2018-09-19T02:41:31.946Z,66.64
2018-09-19T02:44:00.166Z,68.55
2018-09-19T02:46:28.387Z,68.38
2018-09-19T02:48:56.633Z,67.23
2018-09-19T02:51:24.846Z,67.57
2018-09-19T02:53:53.077Z,68.20
2018-09-19T02:56:21.309Z,67.52
2018-09-19T02:58:49.604Z,67.13
2018-09-19T03:01:17.823Z,67.72
2018-09-19T03:03:46.025Z,68.85
2018-09-19T03:06:14.235Z,69.09
2018-09-19T03:08:42.438Z,69.60
2018-09-19T03:11:10.663Z,68.84
2018-09-19T03:13:38.884Z,69.26
2018-09-19T03:16:07.147Z,69.50
2018-09-19T03:18:35.399Z,69.99
2018-09-19T03:21:03.718Z,69.80
2018-09-19T03:23:31.946Z,69.88
2018-09-19T03:26:00.162Z,69.71
2018-09-19T03:28:28.382Z,71.54
2018-09-19T03:30:56.635Z,71.08
2018-09-19T03:33:24.861Z,69.53
2018-09-19T03:35:53.097Z,71.87
2018-09-19T03:38:21.318Z,70.74
2018-09-19T03:40:49.541Z,71.38
2018-09-19T03:43:17.747Z,70.15
2018-09-19T03:45:45.972Z,69.09
2018-09-19T03:48:14.185Z,69.74
2018-09-19T03:50:42.393Z,70.09
2018-09-19T03:53:10.610Z,70.66
2018-09-19T03:55:38.849Z,70.30
2018-09-19T03:58:07.088Z,71.25
2018-09-19T04:00:35.274Z,71.91
2018-09-19T04:03:03.493Z,71.79
2018-09-19T04:05:31.714Z,71.55
2018-09-19T04:07:59.929Z,72.57
2018-09-19T04:10:28.150Z,71.13
2018-09-19T04:12:56.361Z,71.05
2018-09-19T04:15:24.572Z,72.10
2018-09-19T04:17:52.887Z,72.71
2018-09-19T04:20:21.016Z,72.12
2018-09-19T04:22:49.247Z,71.77
2018-09-19T04:25:17.458Z,72.33
2018-09-19T04:27:45.669Z,72.03
2018-09-19T04:30:13.875Z,72.10
2018-09-19T04:32:42.134Z,71.48
2018-09-19T04:35:10.352Z,72.00
2018-09-19T04:37:38.557Z,72.22
2018-09-19T04:40:06.816Z,73.14
2018-09-19T04:42:35.035Z,72.12
2018-09-19T04:45:03.286Z,73.11
2018-09-19T04:47:31.480Z,72.64
2018-09-19T04:49:59.707Z,73.25
2018-09-19T04:52:27.937Z,73.87
2018-09-19T04:54:56.177Z,74.66
2018-09-19T04:57:24.357Z,74.84
2018-09-19T04:59:52.577Z,74.97
2018-09-19T05:02:20.809Z,73.79
2018-09-19T05:04:49.032Z,73.85
2018-09-19T05:07:17.423Z,73.52
2018-09-19T05:09:45.561Z,74.46
2018-09-19T05:12:13.791Z,73.84
2018-09-19T05:14:42.001Z,73.21
2018-09-19T05:17:10.223Z,73.61
2018-09-19T05:19:38.512Z,73.12
2018-09-19T05:22:06.701Z,74.45
2018-09-19T05:24:34.918Z,73.94
2018-09-19T05:27:03.139Z,76.02
2018-09-19T05:29:31.395Z,75.25
2018-09-19T05:31:59.609Z,74.67
2018-09-19T05:34:27.835Z,74.60
2018-09-19T05:36:56.058Z,74.43
2018-09-19T05:39:24.284Z,74.90
2018-09-19T05:41:52.493Z,74.91
2018-09-19T05:44:20.723Z,75.04
2018-09-19T05:46:48.925Z,75.70
2018-09-19T05:49:17.143Z,74.79
2018-09-19T05:51:45.375Z,75.64
2018-09-19T05:54:13.590Z,75.75
2018-09-19T05:56:41.812Z,76.01
2018-09-19T05:59:10.066Z,77.05
2018-09-19T06:01:38.278Z,77.53
2018-09-19T06:04:06.674Z,79.03
2018-09-19T06:06:34.902Z,78.64
2018-09-19T06:09:03.210Z,78.97
2018-09-19T06:11:31.438Z,78.54
2018-09-19T06:13:59.651Z,78.17
2018-09-19T06:16:27.885Z,77.76
2018-09-19T06:18:56.108Z,77.67
2018-09-19T06:21:24.330Z,76.91
2018-09-19T06:23:52.529Z,77.42
2018-09-19T06:26:21.729Z,77.31
2018-09-19T06:28:49.964Z,77.78
2018-09-19T06:31:18.202Z,76.75
2018-09-19T06:33:46.419Z,75.37
2018-09-19T06:36:14.629Z,75.52
2018-09-19T06:38:42.852Z,75.38
2018-09-19T06:41:11.078Z,73.63
2018-09-19T06:43:39.285Z,73.76
2018-09-19T06:46:07.559Z,73.99
2018-09-19T06:48:35.789Z,73.46
2018-09-19T06:51:04.014Z,71.84
2018-09-19T06:53:32.241Z,72.55
2018-09-19T06:56:00.466Z,71.36
2018-09-19T06:58:28.759Z,71.22
2018-09-19T07:00:56.976Z,69.18
2018-09-19T07:03:25.208Z,69.42
2018-09-19T07:05:53.495Z,68.74
2018-09-19T07:08:21.662Z,69.15
2018-09-19T07:10:49.875Z,66.61
2018-09-19T07:13:18.083Z,66.86
2018-09-19T07:15:46.327Z,66.15
2018-09-19T07:18:14.560Z,65.97
2018-09-19T07:20:42.813Z,66.15
2018-09-19T07:23:11.041Z,66.29
2018-09-19T07:25:39.296Z,65.24
2018-09-19T07:28:07.513Z,63.65
2018-09-19T07:30:35.734Z,63.39
2018-09-19T07:33:03.961Z,63.20
2018-09-19T07:35:32.178Z,61.60
2018-09-19T07:38:00.376Z,62.36
2018-09-19T07:40:28.596Z,62.31
2018-09-19T07:42:56.809Z,61.66
2018-09-19T07:45:25.046Z,60.54
2018-09-19T07:47:53.257Z,58.65
2018-09-19T07:50:21.486Z,59.84
2018-09-19T07:52:49.800Z,60.32
2018-09-19T07:55:18.049Z,60.64
2018-09-19T07:57:46.259Z,60.64
2018-09-19T08:00:14.464Z,59.44
2018-09-19T08:02:42.700Z,60.67
2018-09-19T08:05:10.948Z,60.09
2018-09-19T08:07:39.629Z,60.71
2018-09-19T08:10:07.849Z,59.47
2018-09-19T08:12:36.094Z,59.41
2018-09-19T08:15:04.373Z,59.37
2018-09-19T08:17:32.597Z,58.55
2018-09-19T08:20:00.831Z,56.09
2018-09-19T08:22:29.068Z,56.17
2018-09-19T08:24:57.278Z,56.09
2018-09-19T08:27:25.503Z,54.36
2018-09-19T08:29:53.708Z,54.28
2018-09-19T08:32:21.938Z,53.85
2018-09-19T08:34:50.153Z,54.92
2018-09-19T08:37:18.436Z,55.45
2018-09-19T08:39:46.633Z,56.24
2018-09-19T08:42:14.851Z,54.83
2018-09-19T08:44:43.783Z,56.05
2018-09-19T08:47:11.992Z,55.34
2018-09-19T08:49:40.218Z,53.39
2018-09-19T08:52:08.453Z,50.93
2018-09-19T08:54:36.673Z,52.29
2018-09-19T08:57:04.909Z,50.72
2018-09-19T08:59:33.106Z,53.68
2018-09-19T09:02:01.329Z,54.77
2018-09-19T09:04:29.622Z,55.90
2018-09-19T09:06:57.835Z,54.70
2018-09-19T09:09:27.116Z,55.29
2018-09-19T09:11:55.592Z,53.58
2018-09-19T09:14:23.816Z,52.76
2018-09-19T09:16:52.017Z,52.56
2018-09-19T09:19:20.269Z,53.37
2018-09-19T09:21:48.638Z,52.42
2018-09-19T09:24:16.923Z,51.94
2018-09-19T09:26:45.485Z,52.43
2018-09-19T09:29:13.682Z,52.29
2018-09-19T09:31:43.235Z,52.27
2018-09-19T09:34:11.615Z,51.72
2018-09-19T09:36:39.816Z,51.52
2018-09-19T09:39:08.148Z,51.47
2018-09-19T09:41:36.380Z,51.78
2018-09-19T09:44:04.613Z,51.63
2018-09-19T09:46:32.835Z,50.61
2018-09-19T09:49:01.042Z,50.99
2018-09-19T09:51:29.408Z,51.23
2018-09-19T09:53:57.960Z,49.66
2018-09-19T09:56:26.176Z,49.77
2018-09-19T09:58:54.379Z,49.82
2018-09-19T10:01:22.606Z,49.01
2018-09-19T10:03:50.813Z,49.51
2018-09-19T10:06:19.051Z,49.05
2018-09-19T10:08:47.252Z,48.54
2018-09-19T10:11:15.473Z,49.63
2018-09-19T10:13:43.805Z,49.79
2018-09-19T10:16:11.947Z,48.19
2018-09-19T10:18:40.188Z,48.59
2018-09-19T10:21:08.403Z,48.63
2018-09-19T10:23:36.605Z,47.69
2018-09-19T10:26:04.864Z,48.73
2018-09-19T10:28:33.118Z,48.13
2018-09-19T10:31:01.357Z,47.91
2018-09-19T10:33:29.687Z,48.15
2018-09-19T10:35:57.890Z,48.53
2018-09-19T10:38:26.113Z,47.69
2018-09-19T10:40:54.343Z,46.79
2018-09-19T10:43:22.580Z,47.85
2018-09-19T10:45:50.780Z,45.31
2018-09-19T10:48:19.027Z,45.52
2018-09-19T10:50:47.270Z,44.78
2018-09-19T10:53:15.485Z,43.49
2018-09-19T10:55:43.757Z,43.58
2018-09-19T10:58:11.962Z,44.85
2018-09-19T11:00:40.193Z,44.51
2018-09-19T11:03:08.413Z,44.32
2018-09-19T11:05:36.659Z,43.66
2018-09-19T11:08:04.897Z,43.96
2018-09-19T11:10:33.210Z,44.89
2018-09-19T11:13:01.442Z,43.65
2018-09-19T11:15:29.670Z,44.26
2018-09-19T11:17:57.942Z,43.82
2018-09-19T11:20:26.218Z,44.18
2018-09-19T11:22:54.440Z,43.49
2018-09-19T11:25:22.676Z,43.79
2018-09-19T11:27:50.978Z,44.02
2018-09-19T11:30:19.210Z,43.59
2018-09-19T11:32:47.439Z,42.85
2018-09-19T11:35:15.662Z,42.33
2018-09-19T11:37:43.894Z,44.13
2018-09-19T11:40:12.140Z,41.66
2018-09-19T11:42:40.371Z,42.72
2018-09-19T11:45:08.578Z,41.73
2018-09-19T11:47:36.885Z,41.38
2018-09-19T11:50:05.314Z,41.68
2018-09-19T11:52:33.562Z,41.23
2018-09-19T11:55:01.798Z,41.37
2018-09-19T11:57:30.026Z,42.06
2018-09-19T11:59:58.355Z,41.61
2018-09-19T12:02:26.580Z,40.21
2018-09-19T12:04:54.845Z,40.23
2018-09-19T12:07:23.115Z,40.33
2018-09-19T12:09:51.454Z,40.27
2018-09-19T12:12:20.267Z,40.77
2018-09-19T12:14:48.536Z,40.57
2018-09-19T12:17:16.762Z,40.82
2018-09-19T12:19:45.464Z,39.33
2018-09-19T12:22:16.765Z,39.20
2018-09-19T12:24:45.557Z,39.21
2018-09-19T12:27:13.793Z,39.18
2018-09-19T12:29:42.042Z,39.78
2018-09-19T12:32:10.303Z,39.21
2018-09-19T12:34:38.518Z,39.33
2018-09-19T12:37:06.838Z,39.84
2018-09-19T12:39:35.073Z,39.57
2018-09-19T12:42:03.290Z,39.51
2018-09-19T12:44:31.542Z,39.26
2018-09-19T12:46:59.764Z,40.04
2018-09-19T12:49:27.981Z,40.59
2018-09-19T12:51:56.316Z,40.22
2018-09-19T12:54:24.526Z,39.52
2018-09-19T12:56:52.773Z,38.94
2018-09-19T12:59:21.037Z,39.25
2018-09-19T13:01:49.271Z,38.99
2018-09-19T13:04:17.502Z,38.41
2018-09-19T13:06:45.757Z,38.00
2018-09-19T13:09:14.010Z,37.83
2018-09-19T13:11:42.249Z,38.16
2018-09-19T13:14:10.453Z,38.20
2018-09-19T13:16:38.681Z,37.65
2018-09-19T13:19:06.918Z,38.24
2018-09-19T13:21:35.138Z,38.51
2018-09-19T13:24:03.386Z,39.24
2018-09-19T13:26:31.609Z,38.92
2018-09-19T13:28:59.830Z,39.18
2018-09-19T13:31:28.049Z,39.00
2018-09-19T13:33:56.308Z,38.22
2018-09-19T13:36:24.526Z,38.99
2018-09-19T13:38:52.750Z,37.75
2018-09-19T13:41:20.978Z,37.91
2018-09-19T13:43:49.186Z,38.35
2018-09-19T13:46:17.438Z,38.18
2018-09-19T13:48:49.011Z,36.99
2018-09-19T13:51:21.610Z,37.09
2018-09-19T13:53:49.845Z,37.88
2018-09-19T13:56:18.079Z,38.23
2018-09-19T13:58:46.479Z,38.14
2018-09-19T14:01:14.726Z,37.37
2018-09-19T14:03:42.974Z,37.52
2018-09-19T14:06:11.249Z,36.43
2018-09-19T14:08:39.481Z,37.25
2018-09-19T14:11:07.763Z,37.59
2018-09-19T14:13:35.992Z,36.81
2018-09-19T14:16:04.211Z,37.21
2018-09-19T14:18:32.579Z,36.67
2018-09-19T14:21:00.862Z,36.96
2018-09-19T14:23:29.178Z,37.08
2018-09-19T14:25:57.438Z,37.20
2018-09-19T14:28:25.694Z,36.50
2018-09-19T14:30:53.892Z,37.74
2018-09-19T14:33:22.141Z,37.03
2018-09-19T14:35:50.426Z,38.06
2018-09-19T14:38:18.645Z,36.97
2018-09-19T14:40:46.871Z,36.75
2018-09-19T14:43:15.097Z,36.67
2018-09-19T14:45:46.646Z,37.62
2018-09-19T14:48:14.857Z,36.90
2018-09-19T14:50:43.076Z,37.61
2018-09-19T14:53:11.290Z,35.72
2018-09-19T14:55:39.623Z,36.50
2018-09-19T14:58:07.958Z,35.88
2018-09-19T15:00:36.201Z,36.63
2018-09-19T15:03:04.447Z,35.65
2018-09-19T15:05:32.681Z,35.88
2018-09-19T15:08:00.961Z,35.45
2018-09-19T15:10:29.167Z,35.86
2018-09-19T15:12:57.420Z,35.62
2018-09-19T15:15:25.685Z,35.93
2018-09-19T15:17:53.961Z,34.63
2018-09-19T15:20:22.312Z,35.99
2018-09-19T15:22:50.542Z,35.28
2018-09-19T15:25:18.766Z,36.29
2018-09-19T15:27:47.027Z,35.65
2018-09-19T15:30:16.122Z,35.38
2018-09-19T15:32:45.162Z,36.20
2018-09-19T15:35:14.041Z,36.15
2018-09-19T15:37:42.268Z,36.96
2018-09-19T15:40:11.295Z,37.12
2018-09-19T15:42:39.569Z,36.31
2018-09-19T15:45:07.770Z,36.62
2018-09-19T15:47:35.985Z,36.41
2018-09-19T15:50:04.253Z,37.26
2018-09-19T15:52:32.531Z,38.10
2018-09-19T15:55:00.817Z,37.00
2018-09-19T15:57:29.100Z,37.94
2018-09-19T15:59:57.554Z,37.96
2018-09-19T16:02:25.761Z,37.43
2018-09-19T16:04:54.046Z,36.74
2018-09-19T16:07:23.015Z,36.61
2018-09-19T16:09:51.297Z,36.75
2018-09-19T16:12:20.473Z,37.45
2018-09-19T16:14:48.664Z,36.91
2018-09-19T16:17:17.155Z,37.58
2018-09-19T16:19:45.493Z,37.71
2018-09-19T16:22:13.782Z,37.41
2018-09-19T16:24:41.998Z,36.96
2018-09-19T16:27:10.253Z,37.69
2018-09-19T16:29:38.526Z,37.21
2018-09-19T16:32:09.183Z,37.53
2018-09-19T16:34:37.405Z,38.25
2018-09-19T16:37:05.646Z,38.70
2018-09-19T16:39:33.870Z,38.84
2018-09-19T16:42:02.078Z,38.60
2018-09-19T16:44:30.343Z,38.87
2018-09-19T16:46:58.614Z,39.69
2018-09-19T16:49:27.115Z,38.89
2018-09-19T16:51:55.345Z,39.67
2018-09-19T16:54:23.581Z,38.94
2018-09-19T16:56:51.800Z,39.35
2018-09-19T16:59:20.031Z,39.09
2018-09-19T17:01:48.288Z,39.08
2018-09-19T17:04:16.513Z,39.25
2018-09-19T17:06:44.753Z,39.64
2018-09-19T17:09:12.962Z,39.49
2018-09-19T17:11:41.174Z,41.04
2018-09-19T17:14:09.415Z,40.04
2018-09-19T17:16:37.681Z,39.65
2018-09-19T17:19:05.935Z,40.72
2018-09-19T17:21:34.211Z,40.74
2018-09-19T17:24:02.389Z,40.91
2018-09-19T17:26:30.614Z,40.41
2018-09-19T17:28:58.869Z,40.40
2018-09-19T17:31:27.089Z,40.71
2018-09-19T17:33:55.317Z,41.12
2018-09-19T17:36:23.546Z,41.11
2018-09-19T17:38:51.793Z,41.53
2018-09-19T17:41:20.011Z,41.66
2018-09-19T17:43:48.233Z,41.99
2018-09-19T17:46:16.494Z,42.87
2018-09-19T17:48:44.718Z,41.84
2018-09-19T17:51:12.975Z,41.67
2018-09-19T17:53:41.197Z,42.43
2018-09-19T17:56:09.438Z,42.18
2018-09-19T17:58:38.356Z,43.14
2018-09-19T18:01:06.613Z,43.48
2018-09-19T18:03:34.870Z,43.59
2018-09-19T18:06:03.120Z,42.95
2018-09-19T18:08:31.333Z,43.82
2018-09-19T18:10:59.570Z,43.29
2018-09-19T18:13:27.778Z,44.23
2018-09-19T18:15:55.998Z,44.46
2018-09-19T18:18:24.222Z,43.94
2018-09-19T18:20:52.518Z,44.79
2018-09-19T18:23:20.747Z,44.00
2018-09-19T18:25:48.959Z,44.59
2018-09-19T18:28:17.220Z,44.88
2018-09-19T18:30:45.581Z,45.66
2018-09-19T18:33:13.801Z,45.04
2018-09-19T18:35:42.021Z,46.18
2018-09-19T18:38:10.302Z,46.29
2018-09-19T18:40:38.510Z,46.61
2018-09-19T18:43:06.745Z,46.36
2018-09-19T18:45:34.982Z,46.06
2018-09-19T18:48:03.962Z,47.27
2018-09-19T18:50:32.282Z,47.16
2018-09-19T18:53:00.541Z,47.16
2018-09-19T18:55:29.345Z,47.01
2018-09-19T18:57:57.589Z,47.38
2018-09-19T19:00:25.790Z,48.38
2018-09-19T19:02:54.037Z,48.61
2018-09-19T19:05:22.270Z,48.95
2018-09-19T19:07:50.565Z,49.90
2018-09-19T19:10:18.766Z,48.97
2018-09-19T19:12:46.995Z,50.13
2018-09-19T19:15:15.208Z,50.17
2018-09-19T19:17:43.445Z,50.22
2018-09-19T19:20:11.963Z,50.88
2018-09-19T19:22:40.194Z,51.29
2018-09-19T19:25:08.442Z,51.12
2018-09-19T19:27:36.682Z,51.17
2018-09-19T19:30:05.129Z,50.98
2018-09-19T19:32:33.343Z,52.02
2018-09-19T19:35:01.581Z,52.11
2018-09-19T19:37:29.883Z,52.31
2018-09-19T19:39:58.110Z,52.98
2018-09-19T19:42:26.338Z,52.23
2018-09-19T19:44:55.621Z,52.57
2018-09-19T19:47:23.846Z,52.39
2018-09-19T19:49:52.066Z,53.21
2018-09-19T19:52:20.342Z,52.61
2018-09-19T19:54:48.581Z,53.78
2018-09-19T19:57:16.800Z,53.87
2018-09-19T19:59:45.012Z,53.88
2018-09-19T20:02:13.195Z,53.90
2018-09-19T20:04:41.401Z,53.95
2018-09-19T20:07:09.690Z,53.72
2018-09-19T20:09:37.917Z,54.02
2018-09-19T20:12:06.191Z,54.07
2018-09-19T20:14:34.434Z,56.06
2018-09-19T20:17:02.619Z,57.01
2018-09-19T20:19:30.922Z,58.15
2018-09-19T20:21:59.215Z,57.12
2018-09-19T20:24:27.402Z,57.38
2018-09-19T20:26:56.923Z,55.96
2018-09-19T20:29:25.125Z,56.84
2018-09-19T20:31:53.306Z,56.02
2018-09-19T20:34:21.594Z,56.64
2018-09-19T20:36:50.381Z,56.32
2018-09-19T20:39:18.564Z,57.11
2018-09-19T20:41:46.738Z,57.21
2018-09-19T20:44:15.025Z,56.95
2018-09-19T20:46:43.225Z,57.33
2018-09-19T20:49:11.421Z,57.77
2018-09-19T20:51:39.627Z,58.82
2018-09-19T20:54:07.923Z,59.68
2018-09-19T20:56:36.152Z,60.67
2018-09-19T20:59:05.906Z,58.83
2018-09-19T21:01:34.082Z,59.07
2018-09-19T21:04:02.442Z,59.92
2018-09-19T21:06:30.632Z,59.42
2018-09-19T21:08:58.806Z,61.22
2018-09-19T21:11:26.998Z,58.54
2018-09-19T21:13:55.514Z,59.34
2018-09-19T21:16:23.838Z,59.92
2018-09-19T21:18:52.740Z,60.01
2018-09-19T21:21:21.061Z,60.27
2018-09-19T21:23:49.311Z,60.70
2018-09-19T21:26:17.537Z,61.17
2018-09-19T21:28:45.761Z,61.15
2018-09-19T21:31:13.973Z,59.96
2018-09-19T21:33:42.202Z,59.74
2018-09-19T21:36:10.438Z,61.85
2018-09-19T21:38:38.646Z,60.23
2018-09-19T21:41:06.991Z,62.00
2018-09-19T21:43:35.206Z,63.46
2018-09-19T21:46:03.448Z,61.37
2018-09-19T21:48:31.735Z,62.31
2018-09-19T21:50:59.913Z,62.45
2018-09-19T21:53:28.229Z,62.76
2018-09-19T21:55:56.466Z,62.80
2018-09-19T21:58:24.690Z,62.32
2018-09-19T22:00:58.401Z,62.76
2018-09-19T22:03:26.630Z,63.92
2018-09-19T22:05:55.001Z,63.74
2018-09-19T22:08:23.351Z,62.43
2018-09-19T22:10:51.557Z,62.88
2018-09-19T22:13:19.808Z,62.44
2018-09-19T22:15:48.017Z,62.46
2018-09-19T22:18:17.474Z,62.84
2018-09-19T22:20:45.765Z,62.85
2018-09-19T22:23:13.990Z,62.90
2018-09-19T22:25:42.205Z,62.33
2018-09-19T22:28:10.501Z,63.52
2018-09-19T22:30:38.697Z,62.85
2018-09-19T22:33:07.027Z,62.53
2018-09-19T22:35:35.509Z,61.84
2018-09-19T22:38:03.746Z,62.74
2018-09-19T22:40:31.956Z,63.25
2018-09-19T22:43:00.170Z,63.18
2018-09-19T22:45:28.392Z,65.43
2018-09-19T22:47:56.640Z,65.59
2018-09-19T22:50:24.914Z,64.48
2018-09-19T22:52:53.129Z,65.03
2018-09-19T22:55:21.362Z,64.44
2018-09-19T22:57:49.583Z,65.27
2018-09-19T23:00:17.793Z,64.24
2018-09-19T23:02:46.014Z,64.48
2018-09-19T23:05:14.253Z,63.87
2018-09-19T23:07:42.462Z,65.52
2018-09-19T23:10:10.690Z,65.13
2018-09-19T23:12:38.924Z,64.88
2018-09-19T23:15:07.174Z,65.18
2018-09-19T23:17:35.413Z,65.54
2018-09-19T23:20:03.674Z,64.16
2018-09-19T23:22:31.935Z,64.18
2018-09-19T23:25:00.137Z,65.44
2018-09-19T23:27:28.382Z,64.11
2018-09-19T23:29:56.579Z,64.55
2018-09-19T23:32:24.793Z,64.43
2018-09-19T23:34:53.014Z,64.76
2018-09-19T23:37:21.243Z,64.16
2018-09-19T23:39:49.474Z,64.77
2018-09-19T23:42:17.703Z,65.39
2018-09-19T23:44:45.937Z,64.33
2018-09-19T23:47:14.282Z,65.19
2018-09-19T23:49:42.550Z,66.35
2018-09-19T23:52:10.764Z,65.36
2018-09-19T23:54:38.989Z,65.65
2018-09-19T23:57:07.203Z,64.93
2018-09-19T23:59:35.438Z,65.82
